Flight Number: EUR2036 Duration: 1:20
Departure: Copenhagen Kastrup (EKCH) at 18:20 Distance: 386 Nm
Arrival: Riga Int'l Airport (EVRA) at 19:40 Equipment: B737

Weather Information
Koebenhavn / Kastrup, Denmark (EKCH) 55-37N 012-39E 5M Jan 21, 2019 - 07:20 AM EST / 2019.01.21 1220 UTC
Wind: from the SW (220 degrees) at 15 MPH (13 KT):0
Visibility: 1 mile(s):0
Sky conditions: overcast Weather: light snow showers; mist Temperature: 33 F (1 C)
Windchill: 23 F (-5 C):1 Dew Point: 32 F (0 C) Relative Humidity: 93% Pressure (altimeter): 29.94 in. Hg (1014 hPa)
ob: EKCH 211220Z 22013KT 2200 -SHSN BR OVC005 01/00 Q1014 R04L/550155 R04R/550156 R12/550162 BECMG 5000 cycle: 12
Sunrise: 07:25 Sunset: 15:16 (UTC)

Riga International Airport, Latvia (EVRA) 56-55N 023-58E Jan 21, 2019 - 07:20 AM EST / 2019.01.21 1220 UTC
Wind: from the ESE (110 degrees) at 6 MPH (5 KT):0
Visibility: greater than 7 mile(s):0
Sky conditions: mostly clear Weather: Cumulonimbus clouds observed Temperature: 26 F (-3 C)
Windchill: 19 F (-7 C):1 Dew Point: 23 F (-5 C) Relative Humidity: 86% Pressure (altimeter): 30.00 in. Hg (1016 hPa)
ob: EVRA 211220Z 11005KT 9999 FEW028CB M03/M05 Q1016 R36/320195 NOSIG cycle: 12
Sunrise: 06:47 Sunset: 14:23 (UTC)

TAF:2019/01/21 12:03 TAF EVRA 211101Z 2112/2212 VRB02KT 9999 SCT030 TEMPO 2112/2118 1500 SHSN BKN015CB TEMPO 2118/2124 3000 BR BKN003 PROB40 TEMPO 2118/2124 0500 FZFG VV001 BECMG 2200/2202 13006KT

Previous Pireps for this route
Date Aircraft Flight time Fuel used Landing rate On time
2013-01-28B7371.13100650No
2013-01-30B7371.2064500No
2013-01-31B7371.3067090No
2013-02-02B7371.13100650No
2013-03-07B73701.337756-139Yes
2013-07-21B73701.2813801-249No
2013-08-24B73701.3412616-324No
2013-11-15B73702.1011479-427Yes
2013-11-16B73702.2812607-160No
2013-12-21B7371.3067460Yes
2014-02-15B73701.3413282-162Yes
2014-02-17B73701.307866-571Yes
2014-03-22B737168850Yes
2015-03-29B73701.2511980-478Yes
(pireps marked green are flown by you)

Route map